createdAt,value
2018-08-22T00:00:08.104Z,9.70
2018-08-22T00:02:36.301Z,9.50
2018-08-22T00:05:04.762Z,9.90
2018-08-22T00:07:32.957Z,8.83
2018-08-22T00:10:01.177Z,10.60
2018-08-22T00:12:29.385Z,11.73
2018-08-22T00:14:57.597Z,9.27
2018-08-22T00:17:25.828Z,11.90
2018-08-22T00:19:54.041Z,12.80
2018-08-22T00:22:22.261Z,9.80
2018-08-22T00:24:50.470Z,11.87
2018-08-22T00:27:18.694Z,9.63
2018-08-22T00:29:46.913Z,9.23
2018-08-22T00:32:15.161Z,11.00
2018-08-22T00:34:43.377Z,11.77
2018-08-22T00:37:11.769Z,9.83
2018-08-22T00:39:40.117Z,10.37
2018-08-22T00:42:08.325Z,10.60
2018-08-22T00:44:36.540Z,9.70
2018-08-22T00:47:03.776Z,10.90
2018-08-22T00:49:31.984Z,9.33
2018-08-22T00:52:00.190Z,9.93
2018-08-22T00:54:28.389Z,11.33
2018-08-22T00:56:56.601Z,9.90
2018-08-22T00:59:24.793Z,9.37
2018-08-22T01:01:53.054Z,11.20
2018-08-22T01:04:21.249Z,11.00
2018-08-22T01:06:49.480Z,12.00
2018-08-22T01:09:17.687Z,10.40
2018-08-22T01:11:45.893Z,10.37
2018-08-22T01:14:14.148Z,10.93
2018-08-22T01:16:42.353Z,10.53
2018-08-22T01:19:10.569Z,8.23
2018-08-22T01:21:38.782Z,10.97
2018-08-22T01:24:07.005Z,9.63
2018-08-22T01:26:35.220Z,12.70
2018-08-22T01:29:03.454Z,10.13
2018-08-22T01:31:31.657Z,10.53
2018-08-22T01:33:59.877Z,12.37
2018-08-22T01:36:28.276Z,10.13
2018-08-22T01:38:56.466Z,9.53
2018-08-22T01:41:24.685Z,10.23
2018-08-22T01:43:52.894Z,9.53
2018-08-22T01:46:21.129Z,11.03
2018-08-22T01:48:49.345Z,10.70
2018-08-22T01:51:17.544Z,9.57
2018-08-22T01:53:45.822Z,11.13
2018-08-22T01:56:14.016Z,8.90
2018-08-22T01:58:42.246Z,10.57
2018-08-22T02:01:10.429Z,9.73
2018-08-22T02:03:38.665Z,11.43
2018-08-22T02:06:06.877Z,9.53
2018-08-22T02:08:35.117Z,9.80
2018-08-22T02:11:03.331Z,11.40
2018-08-22T02:13:31.545Z,9.10
2018-08-22T02:15:59.753Z,9.33
2018-08-22T02:18:27.969Z,8.87
2018-08-22T02:20:56.185Z,11.10
2018-08-22T02:23:24.401Z,9.27
2018-08-22T02:25:52.637Z,8.93
2018-08-22T02:28:20.882Z,9.50
2018-08-22T02:30:49.104Z,10.40
2018-08-22T02:33:17.341Z,9.23
2018-08-22T02:35:45.654Z,9.77
2018-08-22T02:38:18.025Z,10.20
2018-08-22T02:40:46.237Z,10.07
2018-08-22T02:43:14.445Z,9.97
2018-08-22T02:45:42.648Z,8.63
2018-08-22T02:48:10.846Z,8.97
2018-08-22T02:50:39.045Z,8.17
2018-08-22T02:53:07.345Z,13.13
2018-08-22T02:55:35.554Z,10.17
2018-08-22T02:58:03.781Z,9.03
2018-08-22T03:00:32.004Z,9.23
2018-08-22T03:03:00.210Z,7.77
2018-08-22T03:05:28.437Z,10.97
2018-08-22T03:07:56.652Z,9.30
2018-08-22T03:10:24.861Z,8.20
2018-08-22T03:12:53.069Z,10.17
2018-08-22T03:15:21.277Z,8.67
2018-08-22T03:17:49.489Z,9.60
2018-08-22T03:20:17.829Z,10.20
2018-08-22T03:22:46.057Z,10.83
2018-08-22T03:25:14.269Z,10.53
2018-08-22T03:27:42.493Z,9.20
2018-08-22T03:30:10.712Z,9.90
2018-08-22T03:32:38.912Z,10.20
2018-08-22T03:35:07.150Z,13.97
2018-08-22T03:37:35.381Z,9.50
2018-08-22T03:40:03.634Z,9.77
2018-08-22T03:42:31.874Z,8.83
2018-08-22T03:45:00.073Z,11.10
2018-08-22T03:47:28.281Z,10.53
2018-08-22T03:49:56.489Z,8.40
2018-08-22T03:52:24.729Z,10.90
2018-08-22T03:54:52.945Z,10.40
2018-08-22T03:57:21.149Z,10.87
2018-08-22T03:59:49.366Z,8.77
2018-08-22T04:02:17.565Z,10.73
2018-08-22T04:04:45.797Z,10.20
2018-08-22T04:07:14.005Z,9.83
2018-08-22T04:09:42.253Z,8.63
2018-08-22T04:12:10.473Z,12.03
2018-08-22T04:14:38.697Z,10.73
2018-08-22T04:17:06.949Z,10.20
2018-08-22T04:19:35.241Z,8.67
2018-08-22T04:22:04.557Z,9.57
2018-08-22T04:24:32.883Z,10.17
2018-08-22T04:27:01.094Z,10.97
2018-08-22T04:29:29.317Z,11.00
2018-08-22T04:31:57.726Z,10.50
2018-08-22T04:34:26.186Z,9.27
2018-08-22T04:36:54.394Z,9.20
2018-08-22T04:39:22.609Z,9.33
2018-08-22T04:41:50.813Z,10.10
2018-08-22T04:44:19.038Z,15.00
2018-08-22T04:46:47.253Z,13.80
2018-08-22T04:49:15.497Z,10.07
2018-08-22T04:51:43.717Z,10.97
2018-08-22T04:54:11.929Z,10.30
2018-08-22T04:56:40.142Z,11.50
2018-08-22T04:59:08.337Z,12.20
2018-08-22T05:01:36.557Z,12.17
2018-08-22T05:04:04.877Z,12.57
2018-08-22T05:06:33.086Z,12.07
2018-08-22T05:09:01.309Z,11.83
2018-08-22T05:11:29.505Z,15.90
2018-08-22T05:13:57.722Z,10.33
2018-08-22T05:16:25.925Z,13.00
2018-08-22T05:18:54.149Z,11.13
2018-08-22T05:21:22.374Z,11.40
2018-08-22T05:23:50.593Z,12.63
2018-08-22T05:26:18.836Z,12.47
2018-08-22T05:28:47.109Z,12.33
2018-08-22T05:31:15.344Z,9.97
2018-08-22T05:33:43.637Z,10.90
2018-08-22T05:36:11.846Z,13.13
2018-08-22T05:38:40.061Z,10.93
2018-08-22T05:41:08.342Z,13.13
2018-08-22T05:43:36.568Z,14.63
2018-08-22T05:46:04.773Z,10.90
2018-08-22T05:48:32.985Z,10.63
2018-08-22T05:51:01.213Z,13.37
2018-08-22T05:53:29.420Z,10.83
2018-08-22T05:55:57.644Z,13.20
2018-08-22T05:58:25.858Z,12.90
2018-08-22T06:00:54.090Z,12.13
2018-08-22T06:03:22.364Z,10.30
2018-08-22T06:05:50.521Z,11.20
2018-08-22T06:08:18.893Z,11.33
2018-08-22T06:10:47.101Z,14.87
2018-08-22T06:13:15.326Z,8.63
2018-08-22T06:15:43.557Z,11.53
2018-08-22T06:18:11.757Z,10.43
2018-08-22T06:20:39.977Z,10.50
2018-08-22T06:23:08.189Z,11.63
2018-08-22T06:25:36.437Z,11.20
2018-08-22T06:28:04.645Z,13.93
2018-08-22T06:30:32.857Z,14.50
2018-08-22T06:33:01.119Z,9.63
2018-08-22T06:35:29.301Z,11.20
2018-08-22T06:37:57.573Z,9.27
2018-08-22T06:40:25.784Z,11.10
2018-08-22T06:42:54.307Z,8.27
2018-08-22T06:45:22.915Z,11.27
2018-08-22T06:47:51.157Z,8.67
2018-08-22T06:50:19.491Z,11.60
2018-08-22T06:52:47.569Z,10.17
2018-08-22T06:55:15.798Z,7.83
2018-08-22T06:57:44.433Z,7.80
2018-08-22T07:00:12.646Z,10.70
2018-08-22T07:02:41.478Z,9.20
2018-08-22T07:05:09.673Z,10.83
2018-08-22T07:07:38.185Z,11.17
2018-08-22T07:10:06.433Z,8.70
2018-08-22T07:12:34.866Z,13.70
2018-08-22T07:15:03.097Z,10.87
2018-08-22T07:17:31.294Z,10.03
2018-08-22T07:19:59.510Z,8.80
2018-08-22T07:22:27.713Z,12.03
2018-08-22T07:24:55.925Z,11.17
2018-08-22T07:27:24.137Z,8.40
2018-08-22T07:29:52.345Z,8.13
2018-08-22T07:32:20.781Z,8.37
2018-08-22T07:34:49.001Z,8.97
2018-08-22T07:37:17.214Z,8.43
2018-08-22T07:39:45.422Z,8.73
2018-08-22T07:42:13.641Z,10.97
2018-08-22T07:44:41.849Z,6.57
2018-08-22T07:47:10.108Z,8.53
2018-08-22T07:49:38.293Z,10.33
2018-08-22T07:52:06.649Z,9.47
2018-08-22T07:54:40.253Z,8.73
2018-08-22T07:57:08.601Z,7.07
2018-08-22T07:59:36.814Z,9.97
2018-08-22T08:02:05.041Z,11.90
2018-08-22T08:04:33.267Z,8.47
2018-08-22T08:07:01.555Z,9.13
2018-08-22T08:09:29.749Z,7.60
2018-08-22T08:11:57.985Z,11.33
2018-08-22T08:14:26.189Z,8.80
2018-08-22T08:16:54.405Z,12.23
2018-08-22T08:19:22.606Z,6.77
2018-08-22T08:21:50.841Z,7.60
2018-08-22T08:24:19.105Z,8.27
2018-08-22T08:26:47.392Z,11.03
2018-08-22T08:29:15.589Z,9.57
2018-08-22T08:31:43.997Z,12.27
2018-08-22T08:34:12.218Z,8.33
2018-08-22T08:36:40.409Z,8.40
2018-08-22T08:39:10.302Z,7.37
2018-08-22T08:41:38.627Z,8.70
2018-08-22T08:44:07.209Z,9.10
2018-08-22T08:46:35.441Z,15.47
2018-08-22T08:49:03.706Z,6.80
2018-08-22T08:51:31.957Z,6.93
2018-08-22T08:54:00.173Z,7.70
2018-08-22T08:56:28.546Z,12.03
2018-08-22T08:58:56.743Z,8.40
2018-08-22T09:01:24.932Z,9.67
2018-08-22T09:03:53.295Z,8.53
2018-08-22T09:06:21.390Z,8.57
2018-08-22T09:08:49.573Z,9.03
2018-08-22T09:11:17.781Z,9.23
2018-08-22T09:13:53.081Z,8.77
2018-08-22T09:16:21.738Z,7.47
2018-08-22T09:18:51.107Z,7.73
2018-08-22T09:21:19.389Z,6.47
2018-08-22T09:23:47.586Z,9.70
2018-08-22T09:26:16.882Z,8.03
2018-08-22T09:28:45.264Z,8.97
2018-08-22T09:31:13.572Z,7.53
2018-08-22T09:33:42.959Z,8.23
2018-08-22T09:36:11.152Z,8.90
2018-08-22T09:38:39.440Z,10.67
2018-08-22T09:41:07.746Z,10.13
2018-08-22T09:43:35.977Z,7.40
2018-08-22T09:46:04.193Z,8.10
2018-08-22T09:48:32.681Z,8.00
2018-08-22T09:51:00.982Z,8.63
2018-08-22T09:53:29.282Z,7.67
2018-08-22T09:55:57.573Z,8.17
2018-08-22T09:58:25.785Z,8.50
2018-08-22T10:00:59.524Z,10.00
2018-08-22T10:03:30.261Z,6.53
2018-08-22T10:05:58.465Z,8.90
2018-08-22T10:08:26.673Z,7.03
2018-08-22T10:10:55.007Z,10.33
2018-08-22T10:13:23.237Z,8.93
2018-08-22T10:15:51.461Z,8.37
2018-08-22T10:18:19.661Z,10.80
2018-08-22T10:20:47.899Z,9.07
2018-08-22T10:23:16.093Z,8.70
2018-08-22T10:25:44.307Z,6.93
2018-08-22T10:28:12.545Z,11.87
2018-08-22T10:30:40.761Z,8.80
2018-08-22T10:33:09.027Z,10.17
2018-08-22T10:35:37.221Z,8.60
2018-08-22T10:38:05.433Z,10.53
2018-08-22T10:40:33.648Z,10.43
2018-08-22T10:43:01.862Z,8.47
2018-08-22T10:45:30.349Z,8.90
2018-08-22T10:47:58.612Z,11.97
2018-08-22T10:50:26.865Z,8.43
2018-08-22T10:52:55.081Z,11.80
2018-08-22T10:55:23.678Z,7.67
2018-08-22T10:57:51.845Z,6.27
2018-08-22T11:00:20.133Z,9.27
2018-08-22T11:02:48.349Z,10.50
2018-08-22T11:05:16.587Z,8.47
2018-08-22T11:07:44.787Z,6.47
2018-08-22T11:10:13.062Z,8.97
2018-08-22T11:12:41.269Z,7.37
2018-08-22T11:15:09.501Z,6.03
2018-08-22T11:17:37.726Z,8.27
2018-08-22T11:20:05.957Z,8.30
2018-08-22T11:22:45.329Z,7.57
2018-08-22T11:25:24.902Z,9.23
2018-08-22T11:28:04.457Z,6.73
2018-08-22T11:30:44.165Z,8.83
2018-08-22T11:33:23.763Z,7.50
2018-08-22T11:35:50.926Z,8.23
2018-08-22T11:38:19.185Z,7.00
2018-08-22T11:40:47.397Z,10.10
2018-08-22T11:43:15.650Z,7.83
2018-08-22T11:45:43.853Z,10.33
2018-08-22T11:48:12.072Z,8.73
2018-08-22T11:50:40.289Z,8.10
2018-08-22T11:53:08.558Z,8.23
2018-08-22T11:55:36.774Z,6.63
2018-08-22T11:58:05.011Z,7.60
2018-08-22T12:00:33.257Z,6.83
2018-08-22T12:03:01.505Z,9.20
2018-08-22T12:05:29.773Z,10.20
2018-08-22T12:07:58.005Z,10.33
2018-08-22T12:10:30.922Z,12.30
2018-08-22T12:13:00.405Z,10.47
2018-08-22T12:15:28.677Z,6.90
2018-08-22T12:17:57.490Z,6.77
2018-08-22T12:20:25.734Z,7.80
2018-08-22T12:22:53.997Z,8.23
2018-08-22T12:25:22.454Z,8.10
2018-08-22T12:27:50.857Z,8.33
2018-08-22T12:30:19.049Z,8.50
2018-08-22T12:32:47.294Z,7.80
2018-08-22T12:35:15.565Z,10.03
2018-08-22T12:37:43.812Z,7.90
2018-08-22T12:40:12.014Z,8.03
2018-08-22T12:42:40.218Z,7.03
2018-08-22T12:45:09.093Z,8.47
2018-08-22T12:47:37.291Z,9.23
2018-08-22T12:50:05.667Z,12.47
2018-08-22T12:52:33.913Z,8.57
2018-08-22T12:55:02.297Z,11.70
2018-08-22T12:57:30.512Z,11.20
2018-08-22T12:59:58.733Z,9.33
2018-08-22T13:02:27.161Z,14.67
2018-08-22T13:04:55.385Z,12.43
2018-08-22T13:07:23.590Z,11.77
2018-08-22T13:09:51.825Z,8.60
2018-08-22T13:12:20.037Z,11.47
2018-08-22T13:14:48.285Z,10.53
2018-08-22T13:17:16.508Z,10.60
2018-08-22T13:19:44.809Z,12.47
2018-08-22T13:22:13.049Z,12.97
2018-08-22T13:24:41.370Z,9.83
2018-08-22T13:27:09.521Z,8.60
2018-08-22T13:29:37.738Z,10.80
2018-08-22T13:32:06.002Z,11.73
2018-08-22T13:34:34.221Z,9.90
2018-08-22T13:37:04.540Z,8.97
2018-08-22T13:39:32.770Z,8.07
2018-08-22T13:42:00.979Z,9.87
2018-08-22T13:44:29.211Z,9.03
2018-08-22T13:46:57.430Z,9.27
2018-08-22T13:49:25.661Z,8.93
2018-08-22T13:51:53.867Z,8.30
2018-08-22T13:54:22.090Z,9.80
2018-08-22T13:56:50.306Z,9.20
2018-08-22T13:59:18.529Z,11.53
2018-08-22T14:01:46.783Z,15.80
2018-08-22T14:04:14.993Z,14.93
2018-08-22T14:06:43.266Z,15.67
2018-08-22T14:09:12.318Z,7.23
2018-08-22T14:11:40.866Z,9.03
2018-08-22T14:14:09.077Z,9.50
2018-08-22T14:16:37.297Z,12.37
2018-08-22T14:19:05.709Z,10.00
2018-08-22T14:21:33.973Z,12.60
2018-08-22T14:24:03.256Z,10.70
2018-08-22T14:26:31.525Z,10.53
2018-08-22T14:28:59.777Z,11.87
2018-08-22T14:31:28.081Z,8.47
2018-08-22T14:33:56.304Z,11.27
2018-08-22T14:36:24.517Z,9.73
2018-08-22T14:38:52.712Z,12.23
2018-08-22T14:41:20.937Z,9.60
2018-08-22T14:43:49.153Z,12.20
2018-08-22T14:46:17.370Z,8.37
2018-08-22T14:48:45.597Z,10.13
2018-08-22T14:51:13.818Z,11.57
2018-08-22T14:53:42.038Z,11.30
2018-08-22T14:56:10.487Z,12.97
2018-08-22T14:58:38.601Z,9.90
2018-08-22T15:01:06.957Z,14.63
2018-08-22T15:03:35.342Z,9.27
2018-08-22T15:06:03.409Z,10.90
2018-08-22T15:08:31.626Z,10.60
2018-08-22T15:10:59.842Z,16.03
2018-08-22T15:13:28.054Z,11.20
2018-08-22T15:15:56.289Z,13.07
2018-08-22T15:18:24.513Z,10.33
2018-08-22T15:20:52.774Z,8.40
2018-08-22T15:23:20.970Z,12.30
2018-08-22T15:25:49.189Z,10.17
2018-08-22T15:28:17.413Z,8.90
2018-08-22T15:30:45.633Z,7.83
2018-08-22T15:33:13.929Z,12.33
2018-08-22T15:35:42.153Z,11.10
2018-08-22T15:38:10.441Z,11.53
2018-08-22T15:40:38.653Z,8.70
2018-08-22T15:43:06.886Z,10.57
2018-08-22T15:45:35.101Z,12.13
2018-08-22T15:48:03.402Z,12.77
2018-08-22T15:50:31.629Z,13.37
2018-08-22T15:52:59.888Z,12.00
2018-08-22T15:55:28.117Z,11.87
2018-08-22T15:58:00.018Z,14.83
2018-08-22T16:00:37.456Z,9.73
2018-08-22T16:03:06.922Z,11.83
2018-08-22T16:05:36.008Z,10.17
2018-08-22T16:08:05.296Z,8.93
2018-08-22T16:10:33.501Z,11.57
2018-08-22T16:13:02.158Z,12.47
2018-08-22T16:15:34.936Z,9.13
2018-08-22T16:18:05.466Z,10.87
2018-08-22T16:20:40.638Z,12.43
2018-08-22T16:23:08.950Z,16.23
2018-08-22T16:25:42.499Z,13.33
2018-08-22T16:28:10.748Z,12.73
2018-08-22T16:30:39.057Z,11.77
2018-08-22T16:33:07.225Z,12.23
2018-08-22T16:35:35.570Z,16.70
2018-08-22T16:38:06.873Z,11.87
2018-08-22T16:40:36.585Z,10.30
2018-08-22T16:43:04.882Z,11.33
2018-08-22T16:45:40.053Z,10.90
2018-08-22T16:48:08.298Z,13.63
2018-08-22T16:50:36.501Z,11.60
2018-08-22T16:53:04.736Z,18.73
2018-08-22T16:55:32.954Z,12.77
2018-08-22T16:58:01.222Z,13.57
2018-08-22T17:00:36.861Z,13.03
2018-08-22T17:03:06.557Z,13.53
2018-08-22T17:05:35.131Z,18.73
2018-08-22T17:08:08.465Z,15.50
2018-08-22T17:10:54.654Z,14.73
2018-08-22T17:13:31.745Z,14.57
2018-08-22T17:16:01.276Z,13.60
2018-08-22T17:18:29.489Z,13.20
2018-08-22T17:20:57.957Z,15.50
2018-08-22T17:23:26.174Z,13.93
2018-08-22T17:25:54.405Z,12.57
2018-08-22T17:28:28.530Z,15.07
2018-08-22T17:30:56.873Z,15.70
2018-08-22T17:33:29.653Z,15.27
2018-08-22T17:35:58.053Z,15.17
2018-08-22T17:38:26.470Z,15.43
2018-08-22T17:40:54.669Z,16.43
2018-08-22T17:43:22.913Z,17.47
2018-08-22T17:45:51.145Z,16.63
2018-08-22T17:48:19.434Z,17.60
2018-08-22T17:50:47.693Z,14.93
2018-08-22T17:53:15.921Z,19.83
2018-08-22T17:55:44.149Z,19.13
2018-08-22T17:58:12.386Z,17.07
2018-08-22T18:00:40.690Z,16.13
2018-08-22T18:03:08.914Z,14.20
2018-08-22T18:05:37.247Z,16.87
2018-08-22T18:08:06.918Z,15.53
2018-08-22T18:10:37.813Z,17.83
2018-08-22T18:13:10.457Z,19.53
2018-08-22T18:15:38.689Z,19.10
2018-08-22T18:18:06.929Z,14.00
2018-08-22T18:20:38.837Z,18.97
2018-08-22T18:23:07.042Z,19.53
2018-08-22T18:25:35.473Z,20.70
2018-08-22T18:28:05.361Z,16.00
2018-08-22T18:30:33.895Z,15.33
2018-08-22T18:33:02.365Z,15.20
2018-08-22T18:35:30.577Z,18.80
2018-08-22T18:37:59.599Z,16.20
2018-08-22T18:40:30.283Z,16.70
2018-08-22T18:43:01.172Z,15.27
2018-08-22T18:45:29.777Z,14.43
2018-08-22T18:47:58.296Z,16.83
2018-08-22T18:50:26.510Z,19.40
2018-08-22T18:52:58.950Z,14.13
2018-08-22T18:55:33.253Z,13.63
2018-08-22T18:58:03.100Z,13.43
2018-08-22T19:00:34.681Z,12.67
2018-08-22T19:03:03.005Z,14.47
2018-08-22T19:05:34.401Z,12.03
2018-08-22T19:08:09.169Z,11.57
2018-08-22T19:10:38.510Z,13.13
2018-08-22T19:13:12.141Z,11.93
2018-08-22T19:15:40.386Z,13.27
2018-08-22T19:18:09.455Z,12.67
2018-08-22T19:20:38.081Z,13.93
2018-08-22T19:23:06.297Z,11.70
2018-08-22T19:25:34.538Z,13.57
2018-08-22T19:28:03.265Z,11.90
2018-08-22T19:30:34.097Z,14.20
2018-08-22T19:33:02.325Z,11.37
2018-08-22T19:35:30.549Z,13.03
2018-08-22T19:38:04.108Z,11.10
2018-08-22T19:40:32.344Z,13.10
2018-08-22T19:43:00.892Z,13.07
2018-08-22T19:45:29.120Z,14.23
2018-08-22T19:47:57.337Z,11.53
2018-08-22T19:50:25.561Z,12.93
2018-08-22T19:52:53.786Z,11.93
2018-08-22T19:55:21.989Z,15.90
2018-08-22T19:57:50.210Z,14.97
2018-08-22T20:00:18.518Z,12.80
2018-08-22T20:02:46.691Z,14.37
2018-08-22T20:05:14.903Z,14.17
2018-08-22T20:07:43.126Z,11.20
2018-08-22T20:10:11.641Z,10.87
2018-08-22T20:12:45.093Z,12.97
2018-08-22T20:15:13.317Z,11.50
2018-08-22T20:17:41.638Z,13.30
2018-08-22T20:20:10.845Z,12.47
2018-08-22T20:22:41.090Z,16.17
2018-08-22T20:25:09.865Z,12.87
2018-08-22T20:27:38.281Z,12.10
2018-08-22T20:30:12.408Z,12.10
2018-08-22T20:32:58.213Z,13.60
2018-08-22T20:35:34.072Z,11.07
2018-08-22T20:38:03.553Z,13.50
2018-08-22T20:40:31.794Z,12.87
2018-08-22T20:43:00.006Z,12.67
2018-08-22T20:45:34.549Z,13.53
2018-08-22T20:48:08.130Z,11.30
2018-08-22T20:50:37.637Z,13.37
2018-08-22T20:53:07.458Z,13.67
2018-08-22T20:55:35.722Z,12.67
2018-08-22T20:58:04.302Z,15.77
2018-08-22T21:00:33.900Z,14.53
2018-08-22T21:03:02.187Z,15.37
2018-08-22T21:05:30.374Z,12.17
2018-08-22T21:07:58.594Z,13.07
2018-08-22T21:10:26.814Z,13.07
2018-08-22T21:12:55.029Z,15.40
2018-08-22T21:15:24.274Z,12.30
2018-08-22T21:17:52.491Z,12.87
2018-08-22T21:20:23.651Z,12.67
2018-08-22T21:22:52.458Z,12.83
2018-08-22T21:25:20.671Z,14.30
2018-08-22T21:27:49.619Z,13.57
2018-08-22T21:30:18.148Z,11.90
2018-08-22T21:32:47.469Z,12.50
2018-08-22T21:35:25.665Z,12.53
2018-08-22T21:37:57.995Z,13.93
2018-08-22T21:40:26.205Z,14.37
2018-08-22T21:42:54.405Z,11.90
2018-08-22T21:45:22.626Z,11.97
2018-08-22T21:48:02.813Z,13.83
2018-08-22T21:50:31.057Z,13.27
2018-08-22T21:53:02.436Z,13.00
2018-08-22T21:55:46.309Z,14.57
2018-08-22T21:58:14.785Z,16.90
2018-08-22T22:00:43.017Z,17.47
2018-08-22T22:03:12.191Z,19.03
2018-08-22T22:05:44.957Z,16.00
2018-08-22T22:08:13.181Z,16.47
2018-08-22T22:10:41.761Z,16.57
2018-08-22T22:13:10.555Z,15.03
2018-08-22T22:15:45.105Z,13.67
2018-08-22T22:18:13.347Z,14.07
2018-08-22T22:20:41.806Z,15.00
2018-08-22T22:23:10.009Z,17.43
2018-08-22T22:25:38.226Z,14.47
2018-08-22T22:28:06.443Z,12.87
2018-08-22T22:30:34.650Z,14.77
2018-08-22T22:33:02.869Z,15.00
2018-08-22T22:35:37.460Z,13.83
2018-08-22T22:38:07.998Z,14.90
2018-08-22T22:40:36.474Z,13.27
2018-08-22T22:43:05.901Z,13.90
2018-08-22T22:45:34.129Z,15.57
2018-08-22T22:48:02.346Z,15.70
2018-08-22T22:50:30.574Z,12.10
2018-08-22T22:52:58.800Z,11.43
2018-08-22T22:55:27.033Z,15.53
2018-08-22T22:57:55.253Z,12.90
2018-08-22T23:00:23.473Z,15.50
2018-08-22T23:02:57.126Z,12.90
2018-08-22T23:05:29.582Z,13.77
2018-08-22T23:07:57.814Z,13.97
2018-08-22T23:10:26.013Z,13.70
2018-08-22T23:12:54.253Z,13.57
2018-08-22T23:15:26.165Z,16.07
2018-08-22T23:17:56.198Z,18.17
2018-08-22T23:20:38.773Z,15.97
2018-08-22T23:23:22.349Z,14.17
2018-08-22T23:25:50.758Z,17.37
2018-08-22T23:28:19.005Z,17.93
2018-08-22T23:30:47.263Z,16.43
2018-08-22T23:33:15.477Z,15.03
2018-08-22T23:35:43.695Z,18.13
2018-08-22T23:38:17.409Z,16.37
2018-08-22T23:40:47.063Z,17.73
2018-08-22T23:43:15.309Z,15.97
2018-08-22T23:45:59.977Z,18.10
2018-08-22T23:48:34.583Z,16.77
2018-08-22T23:51:04.206Z,16.73
2018-08-22T23:53:48.581Z,15.73
2018-08-22T23:56:18.894Z,18.13
2018-08-22T23:58:47.909Z,18.83
